Aviation Digital Data Service (ADDS)

Output produced by TAFs form (0844 UTC 30 May 2016)
found at http://aviationweather.gov/adds/tafs/
 
KRIL 300537Z 3006/3106 07005KT P6SM SCT250 
     FM301600 26004KT P6SM SCT250 
     FM302300 31006KT P6SM VCSH SCT250 
     FM310000 31006KT P6SM SCT250